Wilson, West Virginia
Current Conditions -  °F | °C
As of 4:05 AM on Monday 20 Oct 2014 (Local Time) from K2G4 Reporting Station
Clear Clear  
Wind Chill: 30°   Ceiling: Unl
Heat Index: 36°   Visibility: 10mi
Dew Point: 36°   Wind: 7mph
Humidity: 100%   Direction: 230°SW
Pressure: 30.04"   Gusts: NA
Location:  39.2726°N, 79.3649°W
Report Text: K2G4 200805Z AUTO 23006KT 10SM CLR 02/02 A3004 RMK AO1
Loading
Personal Weather Stations






























Interactive Weather Map
Tropical Storm Tracking
New forecast layout! Learn more

10-Day Weather Forecast

Advertisements
Track Severe Weather on mobile